Station Historical Data
Daily Summary for December 3, 2017 Units:  English    Metric   Both
« Previous Day
Next Day »
Daily Weekly Monthly Yearly Custom
  High: Low: Average:
Temperature: 66.8 °F 44.3 °F 54.2 °F
Dew Point: 50.6 °F 39.5 °F 44.9 °F
Humidity: 94% 37% 74%
Wind Speed: 4.6mph 0.0mph 0.9mph
Wind Gust: 4.6mph - -
Wind- - SSE
Pressure: 30.26 in 30.17 in -
Precipitation: 0.00 in    
Historical Graphs
 
 
Tabular Data for December 3, 2017
Time Temperature Dew Point Pressure Wind Wind Speed Wind Gust Humidity Rainfall Rate (Hourly) Conditions
00:04 51.7 °F 48.9 °F 30.20 in Calm     90% 0.00 in FEW
00:09 51.5 °F 49.0 °F 30.20 in Calm     91% 0.00 in FEW
00:14 51.5 °F 49.0 °F 30.19 in Calm     91% 0.00 in FEW
00:19 51.3 °F 48.8 °F 30.20 in Calm     91% 0.00 in FEW
00:29 51.1 °F 48.6 °F 30.20 in Calm     91% 0.00 in FEW
00:35 51.0 °F 48.5 °F 30.19 in Calm     91% 0.00 in FEW
00:40 51.0 °F 48.5 °F 30.19 in Calm     91% 0.00 in FEW
00:45 51.1 °F 48.9 °F 30.19 in Calm     92% 0.00 in FEW
00:55 51.1 °F 48.9 °F 30.19 in Calm     92% 0.00 in FEW
01:00 51.2 °F 49.0 °F 30.19 in Calm     92% 0.00 in FEW
01:10 51.7 °F 49.7 °F 30.19 in Calm     93% 0.00 in SCT
01:20 51.6 °F 49.4 °F 30.19 in Calm     92% 0.00 in SCT
01:25 51.6 °F 49.4 °F 30.19 in Calm     92% 0.00 in SCT
01:30 51.7 °F 49.5 °F 30.19 in Calm     92% 0.00 in SCT
01:36 52.1 °F 50.1 °F 30.19 in Calm     93% 0.00 in SCT
01:51 52.9 °F 50.6 °F 30.19 in Calm     92% 0.00 in SCT
02:06 53.0 °F 50.4 °F 30.19 in Calm     91% 0.00 in BKN
02:21 52.9 °F 50.3 °F 30.19 in Calm     91% 0.00 in BKN
02:26 52.9 °F 50.3 °F 30.19 in Calm     91% 0.00 in BKN
02:36 52.8 °F 50.2 °F 30.19 in Calm     91% 0.00 in BKN
02:41 52.8 °F 49.9 °F 30.20 in Calm     90% 0.00 in BKN
02:52 52.7 °F 49.8 °F 30.20 in Calm     90% 0.00 in BKN
02:57 52.6 °F 49.8 °F 30.20 in Calm     90% 0.00 in BKN
03:02 52.3 °F 49.5 °F 30.20 in Calm     90% 0.00 in BKN
03:07 52.1 °F 49.3 °F 30.20 in East 1.2 mph 1.2 mph 90% 0.00 in BKN
03:12 51.9 °F 49.4 °F 30.20 in East 1.2 mph   91% 0.00 in BKN
03:17 51.7 °F 49.2 °F 30.20 in East 1.2 mph   91% 0.00 in BKN
03:22 51.5 °F 49.0 °F 30.20 in Calm     91% 0.00 in BKN
03:32 50.8 °F 48.0 °F 30.20 in Calm     90% 0.00 in BKN
03:37 50.6 °F 48.1 °F 30.20 in Calm     91% 0.00 in BKN
03:42 50.3 °F 47.8 °F 30.19 in Calm     91% 0.00 in BKN
03:53 49.6 °F 47.1 °F 30.19 in Calm     91% 0.00 in BKN
03:58 49.3 °F 46.8 °F 30.19 in Calm     91% 0.00 in BKN
04:03 49.0 °F 46.5 °F 30.19 in Calm     91% 0.00 in FEW
04:08 48.8 °F 46.3 °F 30.19 in Calm     91% 0.00 in FEW
04:10 48.7 °F 46.2 °F 30.19 in Calm     91% 0.00 in FEW
04:15 48.5 °F 46.0 °F 30.19 in Calm     91% 0.00 in FEW
04:20 48.3 °F 45.8 °F 30.19 in Calm     91% 0.00 in FEW
04:30 47.9 °F 45.7 °F 30.19 in Calm     92% 0.00 in FEW
04:35 47.7 °F 45.5 °F 30.19 in Calm     92% 0.00 in FEW
04:40 47.7 °F 45.5 °F 30.19 in Calm     92% 0.00 in FEW
04:45 47.5 °F 45.3 °F 30.19 in Calm     92% 0.00 in FEW
04:51 47.3 °F 45.1 °F 30.20 in Calm     92% 0.00 in FEW
04:56 47.1 °F 44.9 °F 30.19 in Calm     92% 0.00 in FEW
05:01 46.9 °F 44.7 °F 30.19 in Calm     92% 0.00 in FEW
05:06 46.8 °F 44.6 °F 30.19 in Calm     92% 0.00 in CLR
05:11 46.7 °F 44.5 °F 30.19 in Calm     92% 0.00 in CLR
05:16 46.5 °F 44.3 °F 30.19 in Calm     92% 0.00 in CLR
05:21 46.4 °F 44.2 °F 30.19 in Calm     92% 0.00 in CLR
05:26 46.3 °F 44.1 °F 30.19 in Calm     92% 0.00 in CLR
05:31 46.1 °F 43.9 °F 30.20 in Calm     92% 0.00 in CLR
05:36 46.1 °F 43.9 °F 30.20 in Calm     92% 0.00 in CLR
05:41 45.9 °F 43.7 °F 30.19 in Calm     92% 0.00 in CLR
05:46 45.8 °F 43.6 °F 30.19 in Calm     92% 0.00 in CLR
05:51 45.7 °F 43.5 °F 30.20 in Calm     92% 0.00 in CLR
05:56 45.7 °F 43.5 °F 30.20 in Calm     92% 0.00 in CLR
06:01 45.6 °F 43.4 °F 30.20 in Calm     92% 0.00 in CLR
06:07 45.6 °F 43.4 °F 30.20 in Calm     92% 0.00 in CLR
06:12 45.4 °F 43.2 °F 30.20 in Calm     92% 0.00 in CLR
06:17 45.4 °F 43.5 °F 30.20 in Calm     93% 0.00 in CLR
06:22 45.3 °F 43.4 °F 30.20 in Calm     93% 0.00 in CLR
06:27 45.2 °F 43.3 °F 30.20 in Calm     93% 0.00 in CLR
06:32 45.1 °F 43.2 °F 30.21 in Calm     93% 0.00 in FEW
06:37 45.0 °F 43.1 °F 30.21 in Calm     93% 0.00 in FEW
06:42 44.9 °F 43.0 °F 30.21 in Calm     93% 0.00 in SCT
06:47 44.9 °F 43.0 °F 30.21 in Calm     93% 0.00 in SCT
06:52 44.8 °F 42.9 °F 30.21 in Calm     93% 0.00 in SCT
06:57 44.8 °F 42.9 °F 30.22 in Calm     93% 0.00 in SCT
07:02 44.7 °F 42.8 °F 30.22 in Calm     93% 0.00 in
07:07 44.7 °F 42.8 °F 30.22 in Calm     93% 0.00 in
07:12 44.7 °F 42.8 °F 30.22 in Calm     93% 0.00 in
07:18 44.6 °F 42.7 °F 30.22 in Calm     93% 0.00 in
07:23 44.6 °F 42.7 °F 30.22 in Calm     93% 0.00 in
07:28 44.5 °F 42.6 °F 30.23 in Calm     93% 0.00 in
07:33 44.5 °F 42.6 °F 30.23 in Calm     93% 0.00 in
07:38 44.4 °F 42.5 °F 30.23 in Calm     93% 0.00 in
07:43 44.4 °F 42.5 °F 30.23 in Calm     93% 0.00 in
07:48 44.3 °F 42.4 °F 30.23 in Calm     93% 0.00 in
07:53 44.3 °F 42.4 °F 30.23 in Calm     93% 0.00 in
07:58 44.4 °F 42.5 °F 30.23 in Calm     93% 0.00 in
08:03 44.4 °F 42.5 °F 30.23 in Calm     93% 0.00 in
08:08 44.5 °F 42.6 °F 30.23 in Calm     93% 0.00 in
08:13 44.7 °F 42.8 °F 30.23 in Calm     93% 0.00 in
08:19 44.8 °F 42.9 °F 30.24 in Calm     93% 0.00 in
08:24 45.0 °F 43.1 °F 30.24 in East 1.2 mph   93% 0.00 in
08:29 45.3 °F 43.4 °F 30.24 in East 1.2 mph   93% 0.00 in
08:34 45.5 °F 43.9 °F 30.24 in East 1.2 mph   94% 0.00 in
08:39 45.7 °F 44.1 °F 30.24 in Calm     94% 0.00 in
08:44 45.8 °F 44.2 °F 30.24 in Calm     94% 0.00 in
08:49 46.1 °F 44.5 °F 30.24 in Calm     94% 0.00 in
08:54 46.3 °F 44.7 °F 30.25 in Calm     94% 0.00 in
08:58 46.5 °F 44.9 °F 30.25 in Calm     94% 0.00 in
09:03 46.6 °F 45.0 °F 30.25 in Calm     94% 0.00 in
09:08 46.8 °F 45.2 °F 30.25 in Calm     94% 0.00 in
09:13 46.9 °F 45.3 °F 30.25 in Calm     94% 0.00 in
09:18 47.0 °F 45.4 °F 30.25 in East 1.2 mph   94% 0.00 in
09:23 47.3 °F 45.7 °F 30.25 in East 1.2 mph   94% 0.00 in
09:28 47.6 °F 46.0 °F 30.25 in Calm     94% 0.00 in
09:33 47.7 °F 46.1 °F 30.25 in Calm     94% 0.00 in
09:38 48.0 °F 46.4 °F 30.25 in Calm     94% 0.00 in
09:43 48.2 °F 46.6 °F 30.25 in Calm     94% 0.00 in
09:48 48.7 °F 47.1 °F 30.25 in Calm     94% 0.00 in
09:53 49.1 °F 47.4 °F 30.26 in ESE 1.2 mph   94% 0.00 in
09:59 49.2 °F 47.5 °F 30.25 in East 1.2 mph 1.2 mph 94% 0.00 in
10:04 49.4 °F 47.7 °F 30.25 in East 2.3 mph   94% 0.00 in BKN
10:09 49.8 °F 48.1 °F 30.25 in ESE 2.3 mph   94% 0.00 in BKN
10:14 50.0 °F 48.1 °F 30.25 in South 1.2 mph   93% 0.00 in BKN
10:19 50.8 °F 48.3 °F 30.25 in South 2.3 mph   91% 0.00 in BKN
10:24 51.9 °F 49.1 °F 30.25 in South 2.3 mph   90% 0.00 in BKN
10:25 52.1 °F 48.6 °F 30.25 in Calm   1.0 mph 88% 0.00 in BKN
10:30 53.4 °F 49.0 °F 30.25 in SSW 1.2 mph   85% 0.00 in BKN
10:35 54.2 °F 48.5 °F 30.25 in SE 2.3 mph 2.3 mph 81% 0.00 in BKN
10:40 55.0 °F 48.6 °F 30.25 in ESE 2.3 mph 2.3 mph 79% 0.00 in BKN
10:45 56.0 °F 49.2 °F 30.25 in South 2.3 mph   78% 0.00 in BKN
10:50 56.7 °F 48.1 °F 30.25 in South 1.2 mph   73% 0.00 in BKN
10:55 57.4 °F 48.4 °F 30.25 in SSW 3.5 mph 3.5 mph 72% 0.00 in BKN
11:00 57.8 °F 46.9 °F 30.25 in SSW 3.5 mph 3.5 mph 67% 0.00 in BKN
11:06 58.3 °F 47.0 °F 30.25 in SSW 3.5 mph   66% 0.00 in BKN
11:11 59.2 °F 47.4 °F 30.25 in WSW 2.3 mph   65% 0.00 in BKN
11:16 60.1 °F 46.6 °F 30.25 in WSW 2.3 mph 2.3 mph 61% 0.00 in BKN
11:21 60.7 °F 46.7 °F 30.25 in SW 3.5 mph 3.5 mph 60% 0.00 in BKN
11:26 61.1 °F 46.2 °F 30.24 in South 3.5 mph   58% 0.00 in BKN
11:31 61.0 °F 45.7 °F 30.24 in SSE 2.3 mph   57% 0.00 in BKN
11:36 61.2 °F 46.3 °F 30.24 in SE 2.3 mph 2.3 mph 58% 0.00 in BKN
11:41 61.6 °F 44.8 °F 30.24 in SSE 3.5 mph 3.5 mph 54% 0.00 in BKN
11:46 62.3 °F 46.4 °F 30.24 in WSW 3.5 mph 3.5 mph 56% 0.00 in BKN
11:51 62.0 °F 45.2 °F 30.23 in SE 2.3 mph 2.3 mph 54% 0.00 in BKN
11:56 62.3 °F 45.9 °F 30.23 in SSW 3.5 mph 3.5 mph 55% 0.00 in BKN
12:01 62.6 °F 45.2 °F 30.23 in WSW 3.5 mph 3.5 mph 53% 0.00 in BKN
12:07 62.8 °F 43.3 °F 30.22 in NE 2.3 mph 2.3 mph 49% 0.00 in BKN
12:12 62.7 °F 44.3 °F 30.22 in East 2.3 mph 2.3 mph 51% 0.00 in BKN
12:17 63.0 °F 44.1 °F 30.22 in ESE 2.3 mph 2.3 mph 50% 0.00 in BKN
12:22 63.2 °F 44.2 °F 30.22 in East 2.3 mph 2.3 mph 50% 0.00 in BKN
12:27 63.0 °F 43.5 °F 30.22 in East 2.3 mph   49% 0.00 in BKN
12:32 63.4 °F 42.2 °F 30.22 in ENE 3.5 mph   46% 0.00 in BKN
12:37 64.1 °F 42.9 °F 30.21 in North 3.5 mph   46% 0.00 in BKN
12:42 64.3 °F 42.5 °F 30.21 in East 2.3 mph 2.3 mph 45% 0.00 in BKN
12:47 64.6 °F 43.9 °F 30.21 in SW 2.3 mph   47% 0.00 in BKN
12:52 64.8 °F 42.9 °F 30.21 in SW 3.5 mph 3.5 mph 45% 0.00 in BKN
12:57 65.1 °F 43.2 °F 30.21 in SSE 3.5 mph 3.5 mph 45% 0.00 in BKN
13:02 65.6 °F 43.7 °F 30.21 in South 3.5 mph 3.5 mph 45% 0.00 in BKN
13:07 65.8 °F 43.3 °F 30.21 in SSE 2.3 mph 2.3 mph 44% 0.00 in BKN
13:12 65.6 °F 43.1 °F 30.20 in SE 4.6 mph 4.6 mph 44% 0.00 in BKN
13:18 65.6 °F 43.1 °F 30.20 in ESE 4.6 mph 4.6 mph 44% 0.00 in BKN
13:23 65.7 °F 43.8 °F 30.20 in East 3.5 mph 3.5 mph 45% 0.00 in BKN
13:28 65.5 °F 43.0 °F 30.19 in East 4.6 mph 4.6 mph 44% 0.00 in BKN
13:33 65.2 °F 42.7 °F 30.19 in ENE 4.6 mph 4.6 mph 44% 0.00 in BKN
13:38 65.2 °F 43.9 °F 30.19 in SSW 4.6 mph 4.6 mph 46% 0.00 in BKN
13:43 65.2 °F 42.7 °F 30.19 in East 4.6 mph 4.6 mph 44% 0.00 in BKN
13:48 65.2 °F 43.3 °F 30.19 in East 4.6 mph 4.6 mph 45% 0.00 in BKN
13:53 65.4 °F 42.3 °F 30.19 in ESE 3.5 mph 3.5 mph 43% 0.00 in BKN
13:58 65.3 °F 43.4 °F 30.19 in East 3.5 mph 3.5 mph 45% 0.00 in BKN
14:03 65.3 °F 42.8 °F 30.19 in SSW 2.3 mph   44% 0.00 in BKN
14:08 65.5 °F 42.4 °F 30.19 in WSW 2.3 mph 2.3 mph 43% 0.00 in BKN
14:13 65.5 °F 41.8 °F 30.18 in ESE 2.3 mph   42% 0.00 in BKN
14:14 65.5 °F 41.8 °F 30.19 in ESE 2.3 mph   42% 0.00 in BKN
14:19 65.8 °F 42.1 °F 30.19 in SE 2.3 mph 2.3 mph 42% 0.00 in BKN
14:24 65.9 °F 41.5 °F 30.18 in SE 2.3 mph 2.3 mph 41% 0.00 in BKN
14:29 66.0 °F 41.6 °F 30.18 in ESE 3.5 mph 3.5 mph 41% 0.00 in BKN
14:34 66.0 °F 42.2 °F 30.18 in West 3.5 mph   42% 0.00 in BKN
14:39 66.4 °F 40.0 °F 30.18 in West 2.3 mph 2.3 mph 38% 0.00 in BKN
14:44 66.5 °F 40.1 °F 30.18 in East 2.3 mph 2.3 mph 38% 0.00 in BKN
14:49 66.6 °F 39.5 °F 30.18 in SSE 3.5 mph 3.5 mph 37% 0.00 in BKN
14:54 66.7 °F 40.9 °F 30.18 in West 3.5 mph   39% 0.00 in BKN
14:59 66.7 °F 42.9 °F 30.18 in WNW 3.5 mph   42% 0.00 in BKN
15:03 66.7 °F 40.9 °F 30.18 in WNW 1.2 mph   39% 0.00 in BKN
15:08 66.8 °F 41.7 °F 30.17 in NW 1.2 mph   40% 0.00 in BKN
15:13 66.8 °F 43.6 °F 30.17 in NNW 1.2 mph 1.2 mph 43% 0.00 in BKN
15:18 66.7 °F 43.5 °F 30.17 in NE 1.2 mph 1.2 mph 43% 0.00 in BKN
15:23 66.7 °F 43.5 °F 30.17 in ENE 2.3 mph   43% 0.00 in BKN
15:28 66.7 °F 44.1 °F 30.17 in SE 2.3 mph   44% 0.00 in BKN
15:33 66.6 °F 43.4 °F 30.17 in South 3.5 mph 3.5 mph 43% 0.00 in BKN
15:38 66.4 °F 43.8 °F 30.17 in SSW 3.5 mph   44% 0.00 in BKN
15:43 66.4 °F 44.4 °F 30.17 in ESE 2.3 mph   45% 0.00 in BKN
15:48 66.4 °F 43.2 °F 30.18 in ESE 2.3 mph   43% 0.00 in BKN
15:53 66.3 °F 44.3 °F 30.18 in SSE 1.2 mph 1.2 mph 45% 0.00 in BKN
15:58 66.0 °F 43.5 °F 30.18 in South 1.2 mph   44% 0.00 in BKN
16:04 65.8 °F 45.0 °F 30.18 in SE 1.2 mph   47% 0.00 in BKN
16:09 65.5 °F 43.6 °F 30.18 in SSE 2.3 mph 2.3 mph 45% 0.00 in BKN
16:14 65.5 °F 44.2 °F 30.18 in SSW 2.3 mph   46% 0.00 in BKN
16:19 65.4 °F 44.1 °F 30.18 in SSW 1.2 mph   46% 0.00 in BKN
16:24 65.3 °F 45.1 °F 30.18 in SSW 1.2 mph   48% 0.00 in BKN
16:29 65.1 °F 44.4 °F 30.18 in SW 2.3 mph 2.3 mph 47% 0.00 in BKN
16:34 64.8 °F 44.6 °F 30.18 in WSW 2.3 mph   48% 0.00 in BKN
16:39 64.6 °F 43.3 °F 30.18 in SSW 3.5 mph   46% 0.00 in BKN
16:44 64.3 °F 43.1 °F 30.18 in ENE 3.5 mph   46% 0.00 in BKN
16:49 64.0 °F 43.4 °F 30.18 in East 3.5 mph 3.5 mph 47% 0.00 in BKN
16:54 63.7 °F 43.6 °F 30.18 in ESE 3.5 mph   48% 0.00 in BKN
16:59 63.3 °F 43.3 °F 30.18 in ESE 2.3 mph   48% 0.00 in BKN
17:04 63.0 °F 43.5 °F 30.18 in East 1.2 mph   49% 0.00 in BKN
17:10 62.5 °F 44.6 °F 30.18 in East 1.2 mph   52% 0.00 in BKN
17:15 61.9 °F 45.1 °F 30.18 in East 1.2 mph   54% 0.00 in BKN
17:20 61.3 °F 44.5 °F 30.19 in Calm     54% 0.00 in BKN
17:25 60.7 °F 45.4 °F 30.19 in East 1.2 mph   57% 0.00 in BKN
17:30 60.3 °F 45.0 °F 30.19 in East 1.2 mph   57% 0.00 in BKN
17:35 59.9 °F 45.1 °F 30.19 in Calm     58% 0.00 in BKN
17:40 59.5 °F 44.7 °F 30.19 in Calm     58% 0.00 in BKN
17:45 59.1 °F 44.3 °F 30.19 in Calm     58% 0.00 in BKN
17:50 58.8 °F 44.0 °F 30.19 in Calm     58% 0.00 in BKN
17:55 58.6 °F 44.3 °F 30.19 in Calm     59% 0.00 in BKN
18:00 58.4 °F 44.6 °F 30.19 in Calm     60% 0.00 in BKN
18:05 58.0 °F 44.6 °F 30.19 in Calm     61% 0.00 in BKN
18:10 57.8 °F 44.0 °F 30.19 in Calm     60% 0.00 in BKN
18:12 57.8 °F 44.9 °F 30.19 in Calm     62% 0.00 in BKN
18:17 57.6 °F 44.2 °F 30.20 in East 1.2 mph   61% 0.00 in BKN
18:23 57.4 °F 44.5 °F 30.20 in East 1.2 mph   62% 0.00 in BKN
18:28 57.3 °F 44.0 °F 30.20 in Calm     61% 0.00 in BKN
18:33 57.3 °F 44.0 °F 30.20 in Calm     61% 0.00 in BKN
18:38 57.2 °F 44.3 °F 30.20 in Calm     62% 0.00 in BKN
18:43 57.0 °F 44.5 °F 30.21 in Calm     63% 0.00 in BKN
18:48 56.8 °F 44.3 °F 30.21 in Calm     63% 0.00 in BKN
18:53 56.6 °F 44.1 °F 30.21 in Calm     63% 0.00 in BKN
18:58 56.4 °F 44.4 °F 30.21 in East 1.2 mph   64% 0.00 in BKN
19:03 56.3 °F 44.3 °F 30.21 in East 1.2 mph   64% 0.00 in BKN
19:08 56.1 °F 44.5 °F 30.21 in Calm     65% 0.00 in BKN
19:13 55.9 °F 44.7 °F 30.21 in Calm     66% 0.00 in BKN
19:18 55.7 °F 44.1 °F 30.21 in Calm     65% 0.00 in BKN
19:23 55.6 °F 44.8 °F 30.21 in Calm     67% 0.00 in BKN
19:29 55.4 °F 44.6 °F 30.21 in Calm     67% 0.00 in BKN
19:34 55.3 °F 44.5 °F 30.21 in Calm     67% 0.00 in BKN
19:39 55.3 °F 44.5 °F 30.21 in Calm     67% 0.00 in BKN
19:44 55.2 °F 44.8 °F 30.21 in Calm     68% 0.00 in BKN
19:49 55.3 °F 44.1 °F 30.21 in Calm     66% 0.00 in BKN
19:54 55.5 °F 44.7 °F 30.21 in Calm     67% 0.00 in BKN
19:59 55.1 °F 45.1 °F 30.21 in Calm     69% 0.00 in BKN
20:04 54.3 °F 44.7 °F 30.21 in Calm     70% 0.00 in BKN
20:09 53.7 °F 44.5 °F 30.22 in Calm     71% 0.00 in BKN
20:14 53.0 °F 44.6 °F 30.22 in Calm     73% 0.00 in BKN
20:19 52.2 °F 44.5 °F 30.23 in East 1.2 mph   75% 0.00 in BKN
20:24 51.8 °F 44.1 °F 30.23 in East 1.2 mph   75% 0.00 in BKN
20:30 51.8 °F 44.5 °F 30.23 in East 1.2 mph   76% 0.00 in BKN
20:35 51.6 °F 44.6 °F 30.23 in Calm     77% 0.00 in BKN
20:40 51.5 °F 44.5 °F 30.23 in Calm     77% 0.00 in BKN
20:45 51.3 °F 44.7 °F 30.23 in Calm     78% 0.00 in BKN
20:50 51.0 °F 44.4 °F 30.23 in Calm     78% 0.00 in BKN
20:55 50.9 °F 44.3 °F 30.23 in Calm     78% 0.00 in BKN
21:00 51.1 °F 44.5 °F 30.23 in Calm     78% 0.00 in BKN
21:05 51.1 °F 44.5 °F 30.23 in Calm     78% 0.00 in BKN
21:10 50.9 °F 44.3 °F 30.23 in Calm     78% 0.00 in BKN
21:15 50.8 °F 44.5 °F 30.24 in Calm     79% 0.00 in BKN
21:20 50.8 °F 44.2 °F 30.24 in Calm     78% 0.00 in BKN
21:25 50.6 °F 44.3 °F 30.24 in Calm     79% 0.00 in BKN
21:30 50.4 °F 44.1 °F 30.24 in Calm     79% 0.00 in BKN
21:36 50.1 °F 44.2 °F 30.24 in Calm     80% 0.00 in BKN
21:41 49.7 °F 43.8 °F 30.24 in Calm     80% 0.00 in BKN
21:46 49.4 °F 43.8 °F 30.24 in Calm     81% 0.00 in BKN
21:51 49.3 °F 44.0 °F 30.24 in Calm     82% 0.00 in BKN
21:56 49.0 °F 43.7 °F 30.24 in Calm     82% 0.00 in BKN
22:01 48.8 °F 43.5 °F 30.24 in Calm     82% 0.00 in BKN
22:06 48.7 °F 43.8 °F 30.24 in Calm     83% 0.00 in BKN
22:18 48.9 °F 44.3 °F 30.24 in Calm     84% 0.00 in BKN
22:22 49.1 °F 44.2 °F 30.24 in Calm     83% 0.00 in BKN
22:27 49.0 °F 44.1 °F 30.25 in Calm     83% 0.00 in BKN
22:29 49.0 °F 44.1 °F 30.25 in Calm     83% 0.00 in BKN
22:31 48.9 °F 44.0 °F 30.25 in Calm     83% 0.00 in BKN
22:36 48.7 °F 43.8 °F 30.25 in Calm     83% 0.00 in BKN
22:41 48.4 °F 43.5 °F 30.25 in Calm     83% 0.00 in BKN
22:46 48.2 °F 43.6 °F 30.25 in Calm     84% 0.00 in BKN
22:48 48.1 °F 43.5 °F 30.25 in Calm     84% 0.00 in BKN
22:53 47.9 °F 43.3 °F 30.25 in Calm     84% 0.00 in BKN
22:58 47.8 °F 43.8 °F 30.25 in Calm     86% 0.00 in BKN
23:04 47.8 °F 43.8 °F 30.25 in Calm     86% 0.00 in BKN
23:09 47.7 °F 43.7 °F 30.25 in Calm     86% 0.00 in BKN
23:14 47.6 °F 43.6 °F 30.25 in Calm     86% 0.00 in BKN
23:19 47.4 °F 43.7 °F 30.25 in Calm     87% 0.00 in BKN
23:24 47.5 °F 44.1 °F 30.25 in Calm     88% 0.00 in BKN
23:29 47.5 °F 44.1 °F 30.25 in Calm     88% 0.00 in BKN
23:34 47.5 °F 44.1 °F 30.25 in Calm     88% 0.00 in BKN
23:39 47.4 °F 44.0 °F 30.25 in Calm     88% 0.00 in BKN
23:44 47.6 °F 44.5 °F 30.25 in Calm     89% 0.00 in BKN
23:49 47.9 °F 44.8 °F 30.25 in Calm     89% 0.00 in BKN
23:54 48.0 °F 44.9 °F 30.25 in Calm     89% 0.00 in BKN
23:59 47.9 °F 44.8 °F 30.25 in Calm     89% 0.00 in BKN
Piedmont Bend
Compliments of Weather Underground - 4 mb